sensor_id;sensor_type;location;lat;lon;timestamp;P1;durP1;ratioP1;P2;durP2;ratioP2
83398;SDS011;73326;43.228;0.106;2023-12-20T00:01:26;16.88;;;8.82;;
83398;SDS011;73326;43.228;0.106;2023-12-20T00:03:52;13.30;;;8.48;;
83398;SDS011;73326;43.228;0.106;2023-12-20T00:06:18;15.15;;;8.65;;
83398;SDS011;73326;43.228;0.106;2023-12-20T00:08:44;14.77;;;8.40;;
83398;SDS011;73326;43.228;0.106;2023-12-20T00:11:10;12.35;;;7.97;;
83398;SDS011;73326;43.228;0.106;2023-12-20T00:13:36;12.23;;;8.15;;
83398;SDS011;73326;43.228;0.106;2023-12-20T00:16:02;13.98;;;8.90;;
83398;SDS011;73326;43.228;0.106;2023-12-20T00:18:28;14.60;;;8.85;;
83398;SDS011;73326;43.228;0.106;2023-12-20T00:20:54;14.10;;;8.88;;
83398;SDS011;73326;43.228;0.106;2023-12-20T00:23:20;14.43;;;8.18;;
83398;SDS011;73326;43.228;0.106;2023-12-20T00:25:48;11.52;;;7.63;;
83398;SDS011;73326;43.228;0.106;2023-12-20T00:28:14;11.85;;;7.57;;
83398;SDS011;73326;43.228;0.106;2023-12-20T00:30:40;12.90;;;7.53;;
83398;SDS011;73326;43.228;0.106;2023-12-20T00:33:06;12.07;;;6.75;;
83398;SDS011;73326;43.228;0.106;2023-12-20T00:35:32;11.50;;;7.32;;
83398;SDS011;73326;43.228;0.106;2023-12-20T00:37:58;12.75;;;7.45;;
83398;SDS011;73326;43.228;0.106;2023-12-20T00:40:24;11.70;;;6.97;;
83398;SDS011;73326;43.228;0.106;2023-12-20T00:42:50;11.65;;;6.53;;
83398;SDS011;73326;43.228;0.106;2023-12-20T00:45:16;12.57;;;7.88;;
83398;SDS011;73326;43.228;0.106;2023-12-20T00:47:42;12.57;;;7.75;;
83398;SDS011;73326;43.228;0.106;2023-12-20T00:50:09;11.88;;;8.32;;
83398;SDS011;73326;43.228;0.106;2023-12-20T00:52:35;12.35;;;7.85;;
83398;SDS011;73326;43.228;0.106;2023-12-20T00:55:01;12.82;;;8.40;;
83398;SDS011;73326;43.228;0.106;2023-12-20T00:57:28;11.20;;;7.43;;
83398;SDS011;73326;43.228;0.106;2023-12-20T00:59:54;11.05;;;7.47;;
83398;SDS011;73326;43.228;0.106;2023-12-20T01:02:20;10.70;;;6.10;;
83398;SDS011;73326;43.228;0.106;2023-12-20T01:04:46;9.82;;;6.35;;
83398;SDS011;73326;43.228;0.106;2023-12-20T01:07:12;9.07;;;6.10;;
83398;SDS011;73326;43.228;0.106;2023-12-20T01:09:38;8.50;;;5.78;;
83398;SDS011;73326;43.228;0.106;2023-12-20T01:12:04;9.52;;;6.18;;
83398;SDS011;73326;43.228;0.106;2023-12-20T01:14:30;10.60;;;6.53;;
83398;SDS011;73326;43.228;0.106;2023-12-20T01:16:56;9.45;;;6.20;;
83398;SDS011;73326;43.228;0.106;2023-12-20T01:19:22;9.90;;;6.43;;
83398;SDS011;73326;43.228;0.106;2023-12-20T01:21:49;9.38;;;6.07;;
83398;SDS011;73326;43.228;0.106;2023-12-20T01:24:15;9.65;;;6.38;;
83398;SDS011;73326;43.228;0.106;2023-12-20T01:26:41;7.72;;;5.45;;
83398;SDS011;73326;43.228;0.106;2023-12-20T01:29:07;8.18;;;5.85;;
83398;SDS011;73326;43.228;0.106;2023-12-20T01:31:33;8.48;;;6.07;;
83398;SDS011;73326;43.228;0.106;2023-12-20T01:33:59;7.68;;;5.55;;
83398;SDS011;73326;43.228;0.106;2023-12-20T01:36:25;8.90;;;5.90;;
83398;SDS011;73326;43.228;0.106;2023-12-20T01:38:51;8.90;;;5.57;;
83398;SDS011;73326;43.228;0.106;2023-12-20T01:41:17;9.52;;;6.03;;
83398;SDS011;73326;43.228;0.106;2023-12-20T01:43:43;12.38;;;7.05;;
83398;SDS011;73326;43.228;0.106;2023-12-20T01:46:09;13.02;;;7.55;;
83398;SDS011;73326;43.228;0.106;2023-12-20T01:48:35;10.95;;;6.90;;
83398;SDS011;73326;43.228;0.106;2023-12-20T01:51:01;10.40;;;5.57;;
83398;SDS011;73326;43.228;0.106;2023-12-20T01:53:27;8.32;;;6.22;;
83398;SDS011;73326;43.228;0.106;2023-12-20T01:55:54;8.45;;;5.78;;
83398;SDS011;73326;43.228;0.106;2023-12-20T01:58:20;8.50;;;5.43;;
83398;SDS011;73326;43.228;0.106;2023-12-20T02:00:47;11.63;;;6.30;;
83398;SDS011;73326;43.228;0.106;2023-12-20T02:03:14;9.95;;;5.68;;
83398;SDS011;73326;43.228;0.106;2023-12-20T02:05:40;8.68;;;6.10;;
83398;SDS011;73326;43.228;0.106;2023-12-20T02:08:06;8.73;;;5.97;;
83398;SDS011;73326;43.228;0.106;2023-12-20T02:10:32;9.27;;;6.60;;
83398;SDS011;73326;43.228;0.106;2023-12-20T02:12:58;10.88;;;6.93;;
83398;SDS011;73326;43.228;0.106;2023-12-20T02:15:24;10.02;;;6.95;;
83398;SDS011;73326;43.228;0.106;2023-12-20T02:17:50;10.02;;;6.57;;
83398;SDS011;73326;43.228;0.106;2023-12-20T02:20:16;22.65;;;12.90;;
83398;SDS011;73326;43.228;0.106;2023-12-20T02:22:42;12.90;;;8.18;;
83398;SDS011;73326;43.228;0.106;2023-12-20T02:25:08;13.50;;;8.60;;
83398;SDS011;73326;43.228;0.106;2023-12-20T02:27:34;13.77;;;7.72;;
83398;SDS011;73326;43.228;0.106;2023-12-20T02:30:01;11.73;;;7.00;;
83398;SDS011;73326;43.228;0.106;2023-12-20T02:32:28;13.05;;;7.25;;
83398;SDS011;73326;43.228;0.106;2023-12-20T02:34:54;13.60;;;7.35;;
83398;SDS011;73326;43.228;0.106;2023-12-20T02:37:21;17.70;;;10.80;;
83398;SDS011;73326;43.228;0.106;2023-12-20T02:39:46;10.77;;;6.97;;
83398;SDS011;73326;43.228;0.106;2023-12-20T02:42:13;13.05;;;7.70;;
83398;SDS011;73326;43.228;0.106;2023-12-20T02:44:39;13.52;;;8.98;;
83398;SDS011;73326;43.228;0.106;2023-12-20T02:47:05;15.73;;;8.80;;
83398;SDS011;73326;43.228;0.106;2023-12-20T02:49:31;13.38;;;8.20;;
83398;SDS011;73326;43.228;0.106;2023-12-20T02:51:57;11.50;;;7.72;;
83398;SDS011;73326;43.228;0.106;2023-12-20T02:54:23;11.57;;;7.35;;
83398;SDS011;73326;43.228;0.106;2023-12-20T02:56:49;8.23;;;5.65;;
83398;SDS011;73326;43.228;0.106;2023-12-20T02:59:15;9.07;;;5.30;;
83398;SDS011;73326;43.228;0.106;2023-12-20T03:01:41;8.30;;;5.65;;
83398;SDS011;73326;43.228;0.106;2023-12-20T03:04:08;9.30;;;5.80;;
83398;SDS011;73326;43.228;0.106;2023-12-20T03:06:34;9.70;;;6.25;;
83398;SDS011;73326;43.228;0.106;2023-12-20T03:09:00;10.07;;;5.93;;
83398;SDS011;73326;43.228;0.106;2023-12-20T03:11:29;7.25;;;4.75;;
83398;SDS011;73326;43.228;0.106;2023-12-20T03:13:55;8.07;;;6.07;;
83398;SDS011;73326;43.228;0.106;2023-12-20T03:16:21;10.65;;;5.97;;
83398;SDS011;73326;43.228;0.106;2023-12-20T03:18:47;11.57;;;6.22;;
83398;SDS011;73326;43.228;0.106;2023-12-20T03:21:13;9.45;;;6.20;;
83398;SDS011;73326;43.228;0.106;2023-12-20T03:23:40;10.60;;;6.70;;
83398;SDS011;73326;43.228;0.106;2023-12-20T03:26:08;12.25;;;8.30;;
83398;SDS011;73326;43.228;0.106;2023-12-20T03:28:35;9.85;;;5.85;;
83398;SDS011;73326;43.228;0.106;2023-12-20T03:31:02;8.18;;;5.68;;
83398;SDS011;73326;43.228;0.106;2023-12-20T03:33:28;10.75;;;5.53;;
83398;SDS011;73326;43.228;0.106;2023-12-20T03:35:54;7.03;;;5.35;;
83398;SDS011;73326;43.228;0.106;2023-12-20T03:38:20;7.75;;;4.82;;
83398;SDS011;73326;43.228;0.106;2023-12-20T03:40:48;8.70;;;4.75;;
83398;SDS011;73326;43.228;0.106;2023-12-20T03:43:14;7.47;;;5.05;;
83398;SDS011;73326;43.228;0.106;2023-12-20T03:45:41;6.22;;;4.75;;
83398;SDS011;73326;43.228;0.106;2023-12-20T03:48:07;9.38;;;5.47;;
83398;SDS011;73326;43.228;0.106;2023-12-20T03:50:34;8.13;;;5.18;;
83398;SDS011;73326;43.228;0.106;2023-12-20T03:53:00;8.73;;;5.53;;
83398;SDS011;73326;43.228;0.106;2023-12-20T03:55:26;8.60;;;5.05;;
83398;SDS011;73326;43.228;0.106;2023-12-20T03:57:52;9.35;;;5.18;;
83398;SDS011;73326;43.228;0.106;2023-12-20T04:00:18;8.27;;;5.15;;
83398;SDS011;73326;43.228;0.106;2023-12-20T04:02:44;8.25;;;5.68;;
83398;SDS011;73326;43.228;0.106;2023-12-20T04:05:10;9.93;;;6.82;;
83398;SDS011;73326;43.228;0.106;2023-12-20T04:07:37;11.02;;;6.68;;
83398;SDS011;73326;43.228;0.106;2023-12-20T04:10:03;10.20;;;6.05;;
83398;SDS011;73326;43.228;0.106;2023-12-20T04:12:30;10.50;;;5.97;;
83398;SDS011;73326;43.228;0.106;2023-12-20T04:14:56;6.72;;;4.50;;
83398;SDS011;73326;43.228;0.106;2023-12-20T04:17:23;7.20;;;5.03;;
83398;SDS011;73326;43.228;0.106;2023-12-20T04:19:49;5.20;;;3.33;;
83398;SDS011;73326;43.228;0.106;2023-12-20T04:22:15;3.75;;;2.95;;
83398;SDS011;73326;43.228;0.106;2023-12-20T04:24:41;4.10;;;2.90;;
83398;SDS011;73326;43.228;0.106;2023-12-20T04:27:07;3.25;;;2.30;;
83398;SDS011;73326;43.228;0.106;2023-12-20T04:29:34;2.25;;;1.90;;
83398;SDS011;73326;43.228;0.106;2023-12-20T04:32:00;2.25;;;1.80;;
83398;SDS011;73326;43.228;0.106;2023-12-20T04:34:26;1.70;;;1.40;;
83398;SDS011;73326;43.228;0.106;2023-12-20T04:36:52;1.88;;;1.50;;
83398;SDS011;73326;43.228;0.106;2023-12-20T04:39:18;2.00;;;1.20;;
83398;SDS011;73326;43.228;0.106;2023-12-20T04:41:44;2.47;;;1.30;;
83398;SDS011;73326;43.228;0.106;2023-12-20T04:44:12;1.30;;;1.13;;
83398;SDS011;73326;43.228;0.106;2023-12-20T04:46:38;1.10;;;1.00;;
83398;SDS011;73326;43.228;0.106;2023-12-20T04:49:04;1.58;;;1.10;;
83398;SDS011;73326;43.228;0.106;2023-12-20T04:51:32;1.17;;;1.08;;
83398;SDS011;73326;43.228;0.106;2023-12-20T04:53:59;0.95;;;0.90;;
83398;SDS011;73326;43.228;0.106;2023-12-20T04:56:25;1.77;;;1.13;;
83398;SDS011;73326;43.228;0.106;2023-12-20T04:58:51;1.15;;;1.05;;
83398;SDS011;73326;43.228;0.106;2023-12-20T05:01:17;2.08;;;1.08;;
83398;SDS011;73326;43.228;0.106;2023-12-20T05:03:43;1.67;;;1.20;;
83398;SDS011;73326;43.228;0.106;2023-12-20T05:06:09;1.35;;;1.02;;
83398;SDS011;73326;43.228;0.106;2023-12-20T05:08:36;1.20;;;1.10;;
83398;SDS011;73326;43.228;0.106;2023-12-20T05:11:02;1.15;;;0.93;;
83398;SDS011;73326;43.228;0.106;2023-12-20T05:13:28;2.38;;;1.10;;
83398;SDS011;73326;43.228;0.106;2023-12-20T05:15:54;1.63;;;0.90;;
83398;SDS011;73326;43.228;0.106;2023-12-20T05:18:20;1.73;;;0.93;;
83398;SDS011;73326;43.228;0.106;2023-12-20T05:20:48;1.02;;;0.90;;
83398;SDS011;73326;43.228;0.106;2023-12-20T05:23:14;1.75;;;0.98;;
83398;SDS011;73326;43.228;0.106;2023-12-20T05:25:40;1.63;;;1.00;;
83398;SDS011;73326;43.228;0.106;2023-12-20T05:28:06;0.88;;;0.88;;
83398;SDS011;73326;43.228;0.106;2023-12-20T05:30:32;1.08;;;1.00;;
83398;SDS011;73326;43.228;0.106;2023-12-20T05:32:58;1.15;;;0.90;;
83398;SDS011;73326;43.228;0.106;2023-12-20T05:35:24;1.05;;;0.90;;
83398;SDS011;73326;43.228;0.106;2023-12-20T05:37:50;1.20;;;1.10;;
83398;SDS011;73326;43.228;0.106;2023-12-20T05:40:16;1.13;;;1.00;;
83398;SDS011;73326;43.228;0.106;2023-12-20T05:42:42;0.90;;;0.90;;
83398;SDS011;73326;43.228;0.106;2023-12-20T05:45:08;0.88;;;0.88;;
83398;SDS011;73326;43.228;0.106;2023-12-20T05:47:35;0.93;;;0.80;;
83398;SDS011;73326;43.228;0.106;2023-12-20T05:50:01;1.05;;;0.90;;
83398;SDS011;73326;43.228;0.106;2023-12-20T05:52:28;2.00;;;0.90;;
83398;SDS011;73326;43.228;0.106;2023-12-20T05:54:54;1.98;;;0.98;;
83398;SDS011;73326;43.228;0.106;2023-12-20T05:57:22;1.20;;;1.05;;
83398;SDS011;73326;43.228;0.106;2023-12-20T05:59:48;1.20;;;1.10;;
83398;SDS011;73326;43.228;0.106;2023-12-20T06:02:14;1.20;;;1.10;;
83398;SDS011;73326;43.228;0.106;2023-12-20T06:04:43;1.30;;;1.20;;
83398;SDS011;73326;43.228;0.106;2023-12-20T06:07:13;1.48;;;1.38;;
83398;SDS011;73326;43.228;0.106;2023-12-20T06:09:39;1.67;;;1.05;;
83398;SDS011;73326;43.228;0.106;2023-12-20T06:12:06;1.20;;;1.10;;
83398;SDS011;73326;43.228;0.106;2023-12-20T06:14:33;1.00;;;0.90;;
83398;SDS011;73326;43.228;0.106;2023-12-20T06:16:59;0.90;;;0.90;;
83398;SDS011;73326;43.228;0.106;2023-12-20T06:19:26;1.25;;;1.10;;
83398;SDS011;73326;43.228;0.106;2023-12-20T06:21:52;1.08;;;1.02;;
83398;SDS011;73326;43.228;0.106;2023-12-20T06:24:18;0.90;;;0.90;;
83398;SDS011;73326;43.228;0.106;2023-12-20T06:26:45;1.17;;;0.90;;
83398;SDS011;73326;43.228;0.106;2023-12-20T06:29:11;1.10;;;1.00;;
83398;SDS011;73326;43.228;0.106;2023-12-20T06:31:37;0.90;;;0.90;;
83398;SDS011;73326;43.228;0.106;2023-12-20T06:34:03;1.63;;;1.13;;
83398;SDS011;73326;43.228;0.106;2023-12-20T06:36:29;1.30;;;1.20;;
83398;SDS011;73326;43.228;0.106;2023-12-20T06:38:55;1.65;;;1.50;;
83398;SDS011;73326;43.228;0.106;2023-12-20T06:41:22;1.15;;;1.05;;
83398;SDS011;73326;43.228;0.106;2023-12-20T06:43:49;2.03;;;1.70;;
83398;SDS011;73326;43.228;0.106;2023-12-20T06:46:15;1.67;;;1.58;;
83398;SDS011;73326;43.228;0.106;2023-12-20T06:48:41;2.70;;;1.45;;
83398;SDS011;73326;43.228;0.106;2023-12-20T06:51:10;2.50;;;1.85;;
83398;SDS011;73326;43.228;0.106;2023-12-20T06:53:36;1.73;;;1.63;;
83398;SDS011;73326;43.228;0.106;2023-12-20T06:56:02;1.60;;;1.50;;
83398;SDS011;73326;43.228;0.106;2023-12-20T06:58:28;1.77;;;1.67;;
83398;SDS011;73326;43.228;0.106;2023-12-20T07:00:54;1.92;;;1.60;;
83398;SDS011;73326;43.228;0.106;2023-12-20T07:03:20;1.65;;;1.55;;
83398;SDS011;73326;43.228;0.106;2023-12-20T07:05:46;1.60;;;1.50;;
83398;SDS011;73326;43.228;0.106;2023-12-20T07:08:12;1.63;;;1.50;;
83398;SDS011;73326;43.228;0.106;2023-12-20T07:10:40;1.63;;;1.52;;
83398;SDS011;73326;43.228;0.106;2023-12-20T07:13:06;1.65;;;1.55;;
83398;SDS011;73326;43.228;0.106;2023-12-20T07:15:33;2.72;;;2.00;;
83398;SDS011;73326;43.228;0.106;2023-12-20T07:17:59;3.20;;;2.00;;
83398;SDS011;73326;43.228;0.106;2023-12-20T07:20:25;4.25;;;2.25;;
83398;SDS011;73326;43.228;0.106;2023-12-20T07:22:51;3.90;;;2.60;;
83398;SDS011;73326;43.228;0.106;2023-12-20T07:25:17;3.50;;;2.60;;
83398;SDS011;73326;43.228;0.106;2023-12-20T07:27:45;4.05;;;2.90;;
83398;SDS011;73326;43.228;0.106;2023-12-20T07:30:11;4.75;;;3.20;;
83398;SDS011;73326;43.228;0.106;2023-12-20T07:32:38;5.78;;;2.83;;
83398;SDS011;73326;43.228;0.106;2023-12-20T07:35:04;3.85;;;2.85;;
83398;SDS011;73326;43.228;0.106;2023-12-20T07:37:30;4.32;;;2.67;;
83398;SDS011;73326;43.228;0.106;2023-12-20T07:39:56;3.85;;;2.72;;
83398;SDS011;73326;43.228;0.106;2023-12-20T07:42:22;4.10;;;2.72;;
83398;SDS011;73326;43.228;0.106;2023-12-20T07:44:48;5.00;;;3.00;;
83398;SDS011;73326;43.228;0.106;2023-12-20T07:47:14;3.10;;;2.30;;
83398;SDS011;73326;43.228;0.106;2023-12-20T07:49:44;3.13;;;2.53;;
83398;SDS011;73326;43.228;0.106;2023-12-20T07:52:10;3.05;;;2.13;;
83398;SDS011;73326;43.228;0.106;2023-12-20T07:54:36;2.95;;;1.98;;
83398;SDS011;73326;43.228;0.106;2023-12-20T07:57:02;4.32;;;2.25;;
83398;SDS011;73326;43.228;0.106;2023-12-20T07:59:28;4.53;;;2.63;;
83398;SDS011;73326;43.228;0.106;2023-12-20T08:01:54;3.13;;;2.50;;
83398;SDS011;73326;43.228;0.106;2023-12-20T08:04:20;5.18;;;2.70;;
83398;SDS011;73326;43.228;0.106;2023-12-20T08:06:47;3.83;;;2.63;;
83398;SDS011;73326;43.228;0.106;2023-12-20T08:09:13;4.78;;;3.13;;
83398;SDS011;73326;43.228;0.106;2023-12-20T08:11:39;6.13;;;3.20;;
83398;SDS011;73326;43.228;0.106;2023-12-20T08:14:05;5.20;;;3.10;;
83398;SDS011;73326;43.228;0.106;2023-12-20T08:16:31;7.75;;;3.67;;
83398;SDS011;73326;43.228;0.106;2023-12-20T08:18:57;5.03;;;3.63;;
83398;SDS011;73326;43.228;0.106;2023-12-20T08:21:23;9.73;;;4.10;;
83398;SDS011;73326;43.228;0.106;2023-12-20T08:23:49;4.32;;;3.20;;
83398;SDS011;73326;43.228;0.106;2023-12-20T08:26:18;4.55;;;3.30;;
83398;SDS011;73326;43.228;0.106;2023-12-20T08:28:45;7.57;;;4.00;;
83398;SDS011;73326;43.228;0.106;2023-12-20T08:31:14;4.80;;;3.58;;
83398;SDS011;73326;43.228;0.106;2023-12-20T08:33:41;7.30;;;3.80;;
83398;SDS011;73326;43.228;0.106;2023-12-20T08:36:07;6.78;;;3.33;;
83398;SDS011;73326;43.228;0.106;2023-12-20T08:38:33;7.93;;;3.35;;
83398;SDS011;73326;43.228;0.106;2023-12-20T08:40:59;4.63;;;3.03;;
83398;SDS011;73326;43.228;0.106;2023-12-20T08:43:26;6.00;;;3.08;;
83398;SDS011;73326;43.228;0.106;2023-12-20T08:45:52;5.53;;;3.33;;
83398;SDS011;73326;43.228;0.106;2023-12-20T08:48:18;4.15;;;2.78;;
83398;SDS011;73326;43.228;0.106;2023-12-20T08:50:44;4.28;;;3.45;;
83398;SDS011;73326;43.228;0.106;2023-12-20T08:53:10;5.05;;;2.85;;
83398;SDS011;73326;43.228;0.106;2023-12-20T08:55:36;5.10;;;2.97;;
83398;SDS011;73326;43.228;0.106;2023-12-20T08:58:02;3.83;;;3.30;;
83398;SDS011;73326;43.228;0.106;2023-12-20T09:00:28;5.18;;;3.42;;
83398;SDS011;73326;43.228;0.106;2023-12-20T09:02:54;3.78;;;2.53;;
83398;SDS011;73326;43.228;0.106;2023-12-20T09:05:20;5.70;;;2.95;;
83398;SDS011;73326;43.228;0.106;2023-12-20T09:07:47;3.92;;;3.03;;
83398;SDS011;73326;43.228;0.106;2023-12-20T09:10:13;3.20;;;2.65;;
83398;SDS011;73326;43.228;0.106;2023-12-20T09:12:39;3.63;;;3.10;;
83398;SDS011;73326;43.228;0.106;2023-12-20T09:15:06;3.00;;;2.50;;
83398;SDS011;73326;43.228;0.106;2023-12-20T09:17:32;2.65;;;1.90;;
83398;SDS011;73326;43.228;0.106;2023-12-20T09:19:58;3.70;;;2.20;;
83398;SDS011;73326;43.228;0.106;2023-12-20T09:22:25;2.95;;;1.90;;
83398;SDS011;73326;43.228;0.106;2023-12-20T09:24:51;4.68;;;2.45;;
83398;SDS011;73326;43.228;0.106;2023-12-20T09:27:17;6.63;;;2.55;;
83398;SDS011;73326;43.228;0.106;2023-12-20T09:29:43;2.67;;;2.45;;
83398;SDS011;73326;43.228;0.106;2023-12-20T09:32:09;4.85;;;2.70;;
83398;SDS011;73326;43.228;0.106;2023-12-20T09:34:35;5.00;;;3.40;;
83398;SDS011;73326;43.228;0.106;2023-12-20T09:37:02;3.90;;;2.75;;
83398;SDS011;73326;43.228;0.106;2023-12-20T09:39:28;4.10;;;2.72;;
83398;SDS011;73326;43.228;0.106;2023-12-20T09:44:28;3.97;;;2.28;;
83398;SDS011;73326;43.228;0.106;2023-12-20T09:46:55;2.53;;;2.17;;
83398;SDS011;73326;43.228;0.106;2023-12-20T09:49:21;3.83;;;2.20;;
83398;SDS011;73326;43.228;0.106;2023-12-20T09:51:48;4.32;;;2.05;;
83398;SDS011;73326;43.228;0.106;2023-12-20T09:54:18;2.30;;;1.90;;
83398;SDS011;73326;43.228;0.106;2023-12-20T09:56:44;2.22;;;1.95;;
83398;SDS011;73326;43.228;0.106;2023-12-20T09:59:10;4.78;;;2.50;;
83398;SDS011;73326;43.228;0.106;2023-12-20T10:01:38;3.50;;;1.65;;
83398;SDS011;73326;43.228;0.106;2023-12-20T10:04:05;3.55;;;1.55;;
83398;SDS011;73326;43.228;0.106;2023-12-20T10:06:37;4.40;;;1.60;;
83398;SDS011;73326;43.228;0.106;2023-12-20T10:09:03;3.30;;;2.00;;
83398;SDS011;73326;43.228;0.106;2023-12-20T10:11:29;3.78;;;1.90;;
83398;SDS011;73326;43.228;0.106;2023-12-20T10:13:59;1.75;;;1.63;;
83398;SDS011;73326;43.228;0.106;2023-12-20T10:16:28;1.50;;;1.40;;
83398;SDS011;73326;43.228;0.106;2023-12-20T10:18:55;2.63;;;1.48;;
83398;SDS011;73326;43.228;0.106;2023-12-20T10:21:24;3.13;;;2.20;;
83398;SDS011;73326;43.228;0.106;2023-12-20T10:23:54;3.67;;;1.73;;
83398;SDS011;73326;43.228;0.106;2023-12-20T10:26:21;4.00;;;1.50;;
83398;SDS011;73326;43.228;0.106;2023-12-20T10:28:56;6.05;;;1.70;;
83398;SDS011;73326;43.228;0.106;2023-12-20T10:31:28;2.05;;;1.27;;
83398;SDS011;73326;43.228;0.106;2023-12-20T10:33:58;2.03;;;1.52;;
83398;SDS011;73326;43.228;0.106;2023-12-20T10:36:28;2.35;;;1.50;;
83398;SDS011;73326;43.228;0.106;2023-12-20T10:38:54;3.50;;;1.50;;
83398;SDS011;73326;43.228;0.106;2023-12-20T10:41:28;3.17;;;1.63;;
83398;SDS011;73326;43.228;0.106;2023-12-20T10:44:01;2.35;;;1.80;;
83398;SDS011;73326;43.228;0.106;2023-12-20T10:48:55;5.20;;;2.40;;
83398;SDS011;73326;43.228;0.106;2023-12-20T10:51:21;3.35;;;1.52;;
83398;SDS011;73326;43.228;0.106;2023-12-20T10:53:48;2.70;;;1.33;;
83398;SDS011;73326;43.228;0.106;2023-12-20T10:56:17;2.53;;;1.60;;
83398;SDS011;73326;43.228;0.106;2023-12-20T10:58:44;3.97;;;1.65;;
83398;SDS011;73326;43.228;0.106;2023-12-20T11:01:12;4.28;;;2.13;;
83398;SDS011;73326;43.228;0.106;2023-12-20T11:03:38;3.60;;;1.75;;
83398;SDS011;73326;43.228;0.106;2023-12-20T11:06:09;3.75;;;2.10;;
83398;SDS011;73326;43.228;0.106;2023-12-20T11:11:04;3.70;;;1.80;;
83398;SDS011;73326;43.228;0.106;2023-12-20T11:13:36;4.65;;;1.70;;
83398;SDS011;73326;43.228;0.106;2023-12-20T11:16:03;4.30;;;1.65;;
83398;SDS011;73326;43.228;0.106;2023-12-20T11:18:30;3.03;;;1.40;;
83398;SDS011;73326;43.228;0.106;2023-12-20T11:21:00;3.63;;;1.85;;
83398;SDS011;73326;43.228;0.106;2023-12-20T11:23:29;8.93;;;1.85;;
83398;SDS011;73326;43.228;0.106;2023-12-20T11:25:56;4.28;;;1.83;;
83398;SDS011;73326;43.228;0.106;2023-12-20T11:28:24;4.35;;;1.50;;
83398;SDS011;73326;43.228;0.106;2023-12-20T11:30:51;4.30;;;1.67;;
83398;SDS011;73326;43.228;0.106;2023-12-20T11:33:20;7.68;;;1.63;;
83398;SDS011;73326;43.228;0.106;2023-12-20T11:35:46;5.43;;;1.75;;
83398;SDS011;73326;43.228;0.106;2023-12-20T11:38:13;4.80;;;1.95;;
83398;SDS011;73326;43.228;0.106;2023-12-20T11:40:40;8.25;;;2.25;;
83398;SDS011;73326;43.228;0.106;2023-12-20T11:43:06;4.88;;;1.92;;
83398;SDS011;73326;43.228;0.106;2023-12-20T11:45:32;6.95;;;2.10;;
83398;SDS011;73326;43.228;0.106;2023-12-20T11:48:00;7.15;;;2.08;;
83398;SDS011;73326;43.228;0.106;2023-12-20T11:50:27;7.97;;;2.83;;
83398;SDS011;73326;43.228;0.106;2023-12-20T11:52:55;5.30;;;2.30;;
83398;SDS011;73326;43.228;0.106;2023-12-20T11:55:24;6.43;;;1.88;;
83398;SDS011;73326;43.228;0.106;2023-12-20T11:57:50;5.75;;;1.80;;
83398;SDS011;73326;43.228;0.106;2023-12-20T12:00:17;4.50;;;1.70;;
83398;SDS011;73326;43.228;0.106;2023-12-20T12:02:43;5.25;;;1.70;;
83398;SDS011;73326;43.228;0.106;2023-12-20T12:05:20;8.18;;;2.13;;
83398;SDS011;73326;43.228;0.106;2023-12-20T12:07:47;5.93;;;2.03;;
83398;SDS011;73326;43.228;0.106;2023-12-20T12:10:13;4.10;;;1.60;;
83398;SDS011;73326;43.228;0.106;2023-12-20T12:12:39;4.97;;;2.00;;
83398;SDS011;73326;43.228;0.106;2023-12-20T12:15:05;6.90;;;1.52;;
83398;SDS011;73326;43.228;0.106;2023-12-20T12:17:32;6.95;;;1.75;;
83398;SDS011;73326;43.228;0.106;2023-12-20T12:20:05;4.60;;;1.85;;
83398;SDS011;73326;43.228;0.106;2023-12-20T12:22:31;4.63;;;1.20;;
83398;SDS011;73326;43.228;0.106;2023-12-20T12:24:58;3.78;;;1.27;;
83398;SDS011;73326;43.228;0.106;2023-12-20T12:27:26;5.53;;;1.83;;
83398;SDS011;73326;43.228;0.106;2023-12-20T12:30:04;7.65;;;1.80;;
83398;SDS011;73326;43.228;0.106;2023-12-20T12:32:34;6.65;;;1.95;;
83398;SDS011;73326;43.228;0.106;2023-12-20T12:35:02;6.13;;;1.90;;
83398;SDS011;73326;43.228;0.106;2023-12-20T12:37:28;7.22;;;1.83;;
83398;SDS011;73326;43.228;0.106;2023-12-20T12:39:54;5.45;;;1.67;;
83398;SDS011;73326;43.228;0.106;2023-12-20T12:42:20;8.27;;;1.90;;
83398;SDS011;73326;43.228;0.106;2023-12-20T12:44:47;8.07;;;2.17;;
83398;SDS011;73326;43.228;0.106;2023-12-20T12:47:13;7.65;;;2.10;;
83398;SDS011;73326;43.228;0.106;2023-12-20T12:49:40;6.63;;;1.88;;
83398;SDS011;73326;43.228;0.106;2023-12-20T12:52:06;6.82;;;1.95;;
83398;SDS011;73326;43.228;0.106;2023-12-20T12:54:32;7.10;;;2.22;;
83398;SDS011;73326;43.228;0.106;2023-12-20T12:56:58;6.38;;;2.20;;
83398;SDS011;73326;43.228;0.106;2023-12-20T12:59:24;7.43;;;1.95;;
83398;SDS011;73326;43.228;0.106;2023-12-20T13:01:50;6.53;;;2.10;;
83398;SDS011;73326;43.228;0.106;2023-12-20T13:04:16;7.05;;;2.22;;
83398;SDS011;73326;43.228;0.106;2023-12-20T13:06:42;5.88;;;1.48;;
83398;SDS011;73326;43.228;0.106;2023-12-20T13:09:08;3.03;;;1.25;;
83398;SDS011;73326;43.228;0.106;2023-12-20T13:11:35;4.90;;;1.30;;
83398;SDS011;73326;43.228;0.106;2023-12-20T13:14:01;4.13;;;1.45;;
83398;SDS011;73326;43.228;0.106;2023-12-20T13:16:28;4.78;;;1.20;;
83398;SDS011;73326;43.228;0.106;2023-12-20T13:18:54;4.05;;;1.27;;
83398;SDS011;73326;43.228;0.106;2023-12-20T13:21:21;3.65;;;1.38;;
83398;SDS011;73326;43.228;0.106;2023-12-20T13:23:47;3.00;;;1.23;;
83398;SDS011;73326;43.228;0.106;2023-12-20T13:26:13;3.40;;;1.48;;
83398;SDS011;73326;43.228;0.106;2023-12-20T13:28:39;3.92;;;1.20;;
83398;SDS011;73326;43.228;0.106;2023-12-20T13:31:05;2.95;;;1.20;;
83398;SDS011;73326;43.228;0.106;2023-12-20T13:33:31;3.95;;;1.30;;
83398;SDS011;73326;43.228;0.106;2023-12-20T13:35:57;2.15;;;1.00;;
83398;SDS011;73326;43.228;0.106;2023-12-20T13:38:24;4.22;;;1.30;;
83398;SDS011;73326;43.228;0.106;2023-12-20T13:40:50;3.90;;;1.27;;
83398;SDS011;73326;43.228;0.106;2023-12-20T13:43:16;5.18;;;1.55;;
83398;SDS011;73326;43.228;0.106;2023-12-20T13:45:46;4.78;;;1.42;;
83398;SDS011;73326;43.228;0.106;2023-12-20T13:48:12;2.17;;;1.00;;
83398;SDS011;73326;43.228;0.106;2023-12-20T13:50:38;1.90;;;1.00;;
83398;SDS011;73326;43.228;0.106;2023-12-20T13:53:04;3.92;;;1.27;;
83398;SDS011;73326;43.228;0.106;2023-12-20T13:55:30;2.55;;;1.10;;
83398;SDS011;73326;43.228;0.106;2023-12-20T13:57:56;2.40;;;0.93;;
83398;SDS011;73326;43.228;0.106;2023-12-20T14:00:22;2.88;;;1.00;;
83398;SDS011;73326;43.228;0.106;2023-12-20T14:02:48;3.20;;;1.10;;
83398;SDS011;73326;43.228;0.106;2023-12-20T14:05:15;3.92;;;0.98;;
83398;SDS011;73326;43.228;0.106;2023-12-20T14:07:43;4.28;;;1.20;;
83398;SDS011;73326;43.228;0.106;2023-12-20T14:10:10;2.42;;;0.90;;
83398;SDS011;73326;43.228;0.106;2023-12-20T14:12:36;1.48;;;0.90;;
83398;SDS011;73326;43.228;0.106;2023-12-20T14:15:03;2.65;;;1.20;;
83398;SDS011;73326;43.228;0.106;2023-12-20T14:17:34;1.85;;;0.73;;
83398;SDS011;73326;43.228;0.106;2023-12-20T14:20:00;3.05;;;0.73;;
83398;SDS011;73326;43.228;0.106;2023-12-20T14:22:26;2.65;;;1.02;;
83398;SDS011;73326;43.228;0.106;2023-12-20T14:24:54;4.28;;;1.25;;
83398;SDS011;73326;43.228;0.106;2023-12-20T14:27:22;3.40;;;1.00;;
83398;SDS011;73326;43.228;0.106;2023-12-20T14:29:49;3.83;;;1.02;;
83398;SDS011;73326;43.228;0.106;2023-12-20T14:32:15;2.35;;;1.05;;
83398;SDS011;73326;43.228;0.106;2023-12-20T14:34:41;2.47;;;1.00;;
83398;SDS011;73326;43.228;0.106;2023-12-20T14:37:07;2.40;;;1.00;;
83398;SDS011;73326;43.228;0.106;2023-12-20T14:39:33;1.90;;;1.00;;
83398;SDS011;73326;43.228;0.106;2023-12-20T14:41:59;1.60;;;1.13;;
83398;SDS011;73326;43.228;0.106;2023-12-20T14:44:25;1.23;;;0.73;;
83398;SDS011;73326;43.228;0.106;2023-12-20T14:46:51;2.20;;;0.90;;
83398;SDS011;73326;43.228;0.106;2023-12-20T14:49:17;3.22;;;0.82;;